sensor_id;sensor_type;location;lat;lon;timestamp;P1;durP1;ratioP1;P2;durP2;ratioP2
17844;SDS011;9047;53.486;10.218;2023-08-21T00:01:51;9.20;;;3.38;;
17844;SDS011;9047;53.486;10.218;2023-08-21T00:04:21;10.57;;;3.60;;
17844;SDS011;9047;53.486;10.218;2023-08-21T00:06:48;7.32;;;3.20;;
17844;SDS011;9047;53.486;10.218;2023-08-21T00:09:16;8.90;;;3.53;;
17844;SDS011;9047;53.486;10.218;2023-08-21T00:11:42;8.98;;;3.80;;
17844;SDS011;9047;53.486;10.218;2023-08-21T00:14:09;8.00;;;3.63;;
17844;SDS011;9047;53.486;10.218;2023-08-21T00:16:36;7.32;;;3.65;;
17844;SDS011;9047;53.486;10.218;2023-08-21T00:19:03;4.38;;;3.03;;
17844;SDS011;9047;53.486;10.218;2023-08-21T00:21:29;6.60;;;3.50;;
17844;SDS011;9047;53.486;10.218;2023-08-21T00:23:56;7.18;;;3.58;;
17844;SDS011;9047;53.486;10.218;2023-08-21T00:26:24;4.75;;;3.20;;
17844;SDS011;9047;53.486;10.218;2023-08-21T00:28:51;8.77;;;3.50;;
17844;SDS011;9047;53.486;10.218;2023-08-21T00:31:18;7.88;;;3.80;;
17844;SDS011;9047;53.486;10.218;2023-08-21T00:33:45;6.65;;;3.47;;
17844;SDS011;9047;53.486;10.218;2023-08-21T00:36:12;8.07;;;3.58;;
17844;SDS011;9047;53.486;10.218;2023-08-21T00:38:39;7.90;;;3.85;;
17844;SDS011;9047;53.486;10.218;2023-08-21T00:41:06;9.93;;;4.10;;
17844;SDS011;9047;53.486;10.218;2023-08-21T00:43:34;9.18;;;4.07;;
17844;SDS011;9047;53.486;10.218;2023-08-21T00:46:01;9.68;;;3.35;;
17844;SDS011;9047;53.486;10.218;2023-08-21T00:48:28;8.40;;;3.80;;
17844;SDS011;9047;53.486;10.218;2023-08-21T00:50:55;8.20;;;4.20;;
17844;SDS011;9047;53.486;10.218;2023-08-21T00:53:22;7.43;;;3.65;;
17844;SDS011;9047;53.486;10.218;2023-08-21T00:55:50;8.95;;;3.72;;
17844;SDS011;9047;53.486;10.218;2023-08-21T00:58:18;6.72;;;3.58;;
17844;SDS011;9047;53.486;10.218;2023-08-21T01:00:48;6.90;;;3.47;;
17844;SDS011;9047;53.486;10.218;2023-08-21T01:03:23;10.43;;;4.00;;
17844;SDS011;9047;53.486;10.218;2023-08-21T01:05:50;8.32;;;3.97;;
17844;SDS011;9047;53.486;10.218;2023-08-21T01:08:19;8.20;;;3.85;;
17844;SDS011;9047;53.486;10.218;2023-08-21T01:10:58;7.90;;;4.22;;
17844;SDS011;9047;53.486;10.218;2023-08-21T01:13:36;6.85;;;3.63;;
17844;SDS011;9047;53.486;10.218;2023-08-21T01:16:13;8.95;;;4.05;;
17844;SDS011;9047;53.486;10.218;2023-08-21T01:18:40;6.55;;;3.90;;
17844;SDS011;9047;53.486;10.218;2023-08-21T01:21:09;7.28;;;3.90;;
17844;SDS011;9047;53.486;10.218;2023-08-21T01:23:38;7.15;;;4.45;;
17844;SDS011;9047;53.486;10.218;2023-08-21T01:28:57;8.30;;;4.18;;
17844;SDS011;9047;53.486;10.218;2023-08-21T01:31:26;8.07;;;4.00;;
17844;SDS011;9047;53.486;10.218;2023-08-21T01:33:57;8.30;;;4.50;;
17844;SDS011;9047;53.486;10.218;2023-08-21T01:36:29;8.57;;;4.38;;
17844;SDS011;9047;53.486;10.218;2023-08-21T01:38:58;9.10;;;4.10;;
17844;SDS011;9047;53.486;10.218;2023-08-21T01:41:25;9.27;;;4.25;;
17844;SDS011;9047;53.486;10.218;2023-08-21T01:43:52;8.50;;;4.50;;
17844;SDS011;9047;53.486;10.218;2023-08-21T01:46:19;9.82;;;4.45;;
17844;SDS011;9047;53.486;10.218;2023-08-21T01:48:46;8.55;;;4.30;;
17844;SDS011;9047;53.486;10.218;2023-08-21T01:51:13;8.80;;;4.28;;
17844;SDS011;9047;53.486;10.218;2023-08-21T01:53:40;8.68;;;4.47;;
17844;SDS011;9047;53.486;10.218;2023-08-21T01:56:08;8.32;;;4.60;;
17844;SDS011;9047;53.486;10.218;2023-08-21T01:58:35;8.85;;;4.43;;
17844;SDS011;9047;53.486;10.218;2023-08-21T02:01:02;6.72;;;4.28;;
17844;SDS011;9047;53.486;10.218;2023-08-21T02:03:29;7.45;;;4.47;;
17844;SDS011;9047;53.486;10.218;2023-08-21T02:05:56;8.75;;;4.32;;
17844;SDS011;9047;53.486;10.218;2023-08-21T02:08:25;7.45;;;4.35;;
17844;SDS011;9047;53.486;10.218;2023-08-21T02:10:57;9.85;;;4.30;;
17844;SDS011;9047;53.486;10.218;2023-08-21T02:13:26;6.95;;;4.57;;
17844;SDS011;9047;53.486;10.218;2023-08-21T02:15:52;6.95;;;3.97;;
17844;SDS011;9047;53.486;10.218;2023-08-21T02:18:19;7.80;;;4.78;;
17844;SDS011;9047;53.486;10.218;2023-08-21T02:20:46;11.10;;;4.75;;
17844;SDS011;9047;53.486;10.218;2023-08-21T02:23:14;9.15;;;4.60;;
17844;SDS011;9047;53.486;10.218;2023-08-21T02:25:41;8.52;;;4.70;;
17844;SDS011;9047;53.486;10.218;2023-08-21T02:28:08;9.38;;;4.70;;
17844;SDS011;9047;53.486;10.218;2023-08-21T02:30:36;9.07;;;4.72;;
17844;SDS011;9047;53.486;10.218;2023-08-21T02:33:06;9.80;;;4.53;;
17844;SDS011;9047;53.486;10.218;2023-08-21T02:35:32;8.88;;;5.07;;
17844;SDS011;9047;53.486;10.218;2023-08-21T02:37:59;9.48;;;4.63;;
17844;SDS011;9047;53.486;10.218;2023-08-21T02:40:26;10.63;;;4.93;;
17844;SDS011;9047;53.486;10.218;2023-08-21T02:42:53;10.57;;;5.60;;
17844;SDS011;9047;53.486;10.218;2023-08-21T02:45:19;12.15;;;5.72;;
17844;SDS011;9047;53.486;10.218;2023-08-21T02:47:47;7.72;;;5.05;;
17844;SDS011;9047;53.486;10.218;2023-08-21T02:50:14;12.23;;;5.38;;
17844;SDS011;9047;53.486;10.218;2023-08-21T02:52:41;7.80;;;5.13;;
17844;SDS011;9047;53.486;10.218;2023-08-21T02:55:08;9.10;;;4.50;;
17844;SDS011;9047;53.486;10.218;2023-08-21T02:57:35;9.50;;;4.60;;
17844;SDS011;9047;53.486;10.218;2023-08-21T03:00:02;15.00;;;5.53;;
17844;SDS011;9047;53.486;10.218;2023-08-21T03:02:29;11.65;;;5.25;;
17844;SDS011;9047;53.486;10.218;2023-08-21T03:04:57;8.00;;;4.97;;
17844;SDS011;9047;53.486;10.218;2023-08-21T03:07:24;14.02;;;5.50;;
17844;SDS011;9047;53.486;10.218;2023-08-21T03:09:51;9.23;;;5.40;;
17844;SDS011;9047;53.486;10.218;2023-08-21T03:12:17;8.18;;;5.07;;
17844;SDS011;9047;53.486;10.218;2023-08-21T03:14:45;9.07;;;5.25;;
17844;SDS011;9047;53.486;10.218;2023-08-21T03:17:12;10.85;;;5.65;;
17844;SDS011;9047;53.486;10.218;2023-08-21T03:19:39;9.15;;;5.43;;
17844;SDS011;9047;53.486;10.218;2023-08-21T03:22:07;11.65;;;5.60;;
17844;SDS011;9047;53.486;10.218;2023-08-21T03:24:33;11.60;;;5.50;;
17844;SDS011;9047;53.486;10.218;2023-08-21T03:27:00;8.75;;;5.05;;
17844;SDS011;9047;53.486;10.218;2023-08-21T03:29:27;8.75;;;5.28;;
17844;SDS011;9047;53.486;10.218;2023-08-21T03:31:54;10.15;;;5.40;;
17844;SDS011;9047;53.486;10.218;2023-08-21T03:34:22;9.80;;;5.20;;
17844;SDS011;9047;53.486;10.218;2023-08-21T03:36:49;8.00;;;5.10;;
17844;SDS011;9047;53.486;10.218;2023-08-21T03:39:17;9.70;;;5.22;;
17844;SDS011;9047;53.486;10.218;2023-08-21T03:41:44;11.55;;;5.65;;
17844;SDS011;9047;53.486;10.218;2023-08-21T03:44:11;8.02;;;5.50;;
17844;SDS011;9047;53.486;10.218;2023-08-21T03:46:37;9.07;;;5.60;;
17844;SDS011;9047;53.486;10.218;2023-08-21T03:49:04;10.65;;;5.47;;
17844;SDS011;9047;53.486;10.218;2023-08-21T03:51:31;13.25;;;5.60;;
17844;SDS011;9047;53.486;10.218;2023-08-21T03:53:58;8.15;;;5.13;;
17844;SDS011;9047;53.486;10.218;2023-08-21T03:56:26;12.10;;;5.28;;
17844;SDS011;9047;53.486;10.218;2023-08-21T03:58:53;8.15;;;5.50;;
17844;SDS011;9047;53.486;10.218;2023-08-21T04:01:21;9.35;;;5.35;;
17844;SDS011;9047;53.486;10.218;2023-08-21T04:03:47;11.82;;;5.57;;
17844;SDS011;9047;53.486;10.218;2023-08-21T04:06:14;9.75;;;5.47;;
17844;SDS011;9047;53.486;10.218;2023-08-21T04:08:41;9.43;;;5.95;;
17844;SDS011;9047;53.486;10.218;2023-08-21T04:11:08;11.70;;;5.90;;
17844;SDS011;9047;53.486;10.218;2023-08-21T04:13:37;10.38;;;5.75;;
17844;SDS011;9047;53.486;10.218;2023-08-21T04:16:08;9.90;;;6.00;;
17844;SDS011;9047;53.486;10.218;2023-08-21T04:18:35;13.02;;;6.28;;
17844;SDS011;9047;53.486;10.218;2023-08-21T04:21:03;9.55;;;6.47;;
17844;SDS011;9047;53.486;10.218;2023-08-21T04:23:34;11.73;;;5.97;;
17844;SDS011;9047;53.486;10.218;2023-08-21T04:26:01;9.40;;;5.80;;
17844;SDS011;9047;53.486;10.218;2023-08-21T04:28:29;12.68;;;6.20;;
17844;SDS011;9047;53.486;10.218;2023-08-21T04:30:57;10.93;;;6.20;;
17844;SDS011;9047;53.486;10.218;2023-08-21T04:33:24;9.93;;;6.18;;
17844;SDS011;9047;53.486;10.218;2023-08-21T04:35:51;12.52;;;6.28;;
17844;SDS011;9047;53.486;10.218;2023-08-21T04:38:18;10.52;;;6.53;;
17844;SDS011;9047;53.486;10.218;2023-08-21T04:40:45;12.18;;;6.30;;
17844;SDS011;9047;53.486;10.218;2023-08-21T04:43:11;10.63;;;5.97;;
17844;SDS011;9047;53.486;10.218;2023-08-21T04:45:38;12.27;;;7.15;;
17844;SDS011;9047;53.486;10.218;2023-08-21T04:48:14;12.65;;;6.70;;
17844;SDS011;9047;53.486;10.218;2023-08-21T04:50:41;8.65;;;5.85;;
17844;SDS011;9047;53.486;10.218;2023-08-21T04:53:09;9.25;;;6.15;;
17844;SDS011;9047;53.486;10.218;2023-08-21T04:55:35;10.82;;;5.75;;
17844;SDS011;9047;53.486;10.218;2023-08-21T04:58:05;9.60;;;5.80;;
17844;SDS011;9047;53.486;10.218;2023-08-21T05:00:32;11.05;;;6.03;;
17844;SDS011;9047;53.486;10.218;2023-08-21T05:02:59;13.60;;;6.40;;
17844;SDS011;9047;53.486;10.218;2023-08-21T05:05:29;9.40;;;5.90;;
17844;SDS011;9047;53.486;10.218;2023-08-21T05:07:56;11.35;;;6.85;;
17844;SDS011;9047;53.486;10.218;2023-08-21T05:10:23;13.77;;;6.57;;
17844;SDS011;9047;53.486;10.218;2023-08-21T05:12:50;12.98;;;7.30;;
17844;SDS011;9047;53.486;10.218;2023-08-21T05:15:17;14.18;;;7.70;;
17844;SDS011;9047;53.486;10.218;2023-08-21T05:17:47;13.38;;;7.30;;
17844;SDS011;9047;53.486;10.218;2023-08-21T05:20:14;9.30;;;6.03;;
17844;SDS011;9047;53.486;10.218;2023-08-21T05:22:42;11.23;;;6.80;;
17844;SDS011;9047;53.486;10.218;2023-08-21T05:25:09;12.48;;;7.03;;
17844;SDS011;9047;53.486;10.218;2023-08-21T05:27:36;11.07;;;7.10;;
17844;SDS011;9047;53.486;10.218;2023-08-21T05:30:03;12.55;;;7.15;;
17844;SDS011;9047;53.486;10.218;2023-08-21T05:32:31;12.88;;;6.05;;
17844;SDS011;9047;53.486;10.218;2023-08-21T05:34:58;12.00;;;7.10;;
17844;SDS011;9047;53.486;10.218;2023-08-21T05:37:25;13.80;;;7.80;;
17844;SDS011;9047;53.486;10.218;2023-08-21T05:39:54;11.45;;;7.13;;
17844;SDS011;9047;53.486;10.218;2023-08-21T05:42:21;12.25;;;6.97;;
17844;SDS011;9047;53.486;10.218;2023-08-21T05:44:48;12.85;;;7.07;;
17844;SDS011;9047;53.486;10.218;2023-08-21T05:47:15;10.40;;;6.47;;
17844;SDS011;9047;53.486;10.218;2023-08-21T05:49:42;12.95;;;7.10;;
17844;SDS011;9047;53.486;10.218;2023-08-21T05:52:09;18.80;;;9.20;;
17844;SDS011;9047;53.486;10.218;2023-08-21T05:54:36;13.73;;;7.82;;
17844;SDS011;9047;53.486;10.218;2023-08-21T05:57:04;17.77;;;8.63;;
17844;SDS011;9047;53.486;10.218;2023-08-21T05:59:31;13.27;;;8.50;;
17844;SDS011;9047;53.486;10.218;2023-08-21T06:01:59;16.63;;;8.18;;
17844;SDS011;9047;53.486;10.218;2023-08-21T06:04:26;14.30;;;7.63;;
17844;SDS011;9047;53.486;10.218;2023-08-21T06:06:53;16.35;;;8.30;;
17844;SDS011;9047;53.486;10.218;2023-08-21T06:09:22;13.85;;;6.95;;
17844;SDS011;9047;53.486;10.218;2023-08-21T06:11:50;16.40;;;7.63;;
17844;SDS011;9047;53.486;10.218;2023-08-21T06:14:20;13.18;;;7.10;;
17844;SDS011;9047;53.486;10.218;2023-08-21T06:16:54;14.10;;;7.10;;
17844;SDS011;9047;53.486;10.218;2023-08-21T06:19:20;16.38;;;6.75;;
17844;SDS011;9047;53.486;10.218;2023-08-21T06:21:48;12.57;;;5.60;;
17844;SDS011;9047;53.486;10.218;2023-08-21T06:24:15;13.02;;;5.47;;
17844;SDS011;9047;53.486;10.218;2023-08-21T06:26:42;11.25;;;5.35;;
17844;SDS011;9047;53.486;10.218;2023-08-21T06:29:09;11.30;;;5.40;;
17844;SDS011;9047;53.486;10.218;2023-08-21T06:31:38;11.80;;;4.97;;
17844;SDS011;9047;53.486;10.218;2023-08-21T06:34:05;12.07;;;4.70;;
17844;SDS011;9047;53.486;10.218;2023-08-21T06:36:32;8.65;;;4.57;;
17844;SDS011;9047;53.486;10.218;2023-08-21T06:38:58;9.90;;;4.20;;
17844;SDS011;9047;53.486;10.218;2023-08-21T06:41:25;15.00;;;5.05;;
17844;SDS011;9047;53.486;10.218;2023-08-21T06:43:53;13.50;;;4.68;;
17844;SDS011;9047;53.486;10.218;2023-08-21T06:46:19;13.20;;;4.68;;
17844;SDS011;9047;53.486;10.218;2023-08-21T06:48:48;12.32;;;4.35;;
17844;SDS011;9047;53.486;10.218;2023-08-21T06:51:19;13.70;;;4.32;;
17844;SDS011;9047;53.486;10.218;2023-08-21T06:53:45;9.88;;;4.10;;
17844;SDS011;9047;53.486;10.218;2023-08-21T06:56:12;10.73;;;3.60;;
17844;SDS011;9047;53.486;10.218;2023-08-21T06:58:41;12.93;;;3.90;;
17844;SDS011;9047;53.486;10.218;2023-08-21T07:01:08;11.07;;;3.88;;
17844;SDS011;9047;53.486;10.218;2023-08-21T07:03:35;12.80;;;4.03;;
17844;SDS011;9047;53.486;10.218;2023-08-21T07:06:06;11.23;;;3.60;;
17844;SDS011;9047;53.486;10.218;2023-08-21T07:08:34;13.20;;;3.17;;
17844;SDS011;9047;53.486;10.218;2023-08-21T07:11:04;12.50;;;3.63;;
17844;SDS011;9047;53.486;10.218;2023-08-21T07:13:36;9.15;;;3.13;;
17844;SDS011;9047;53.486;10.218;2023-08-21T07:16:06;8.27;;;2.60;;
17844;SDS011;9047;53.486;10.218;2023-08-21T07:18:34;8.32;;;2.30;;
17844;SDS011;9047;53.486;10.218;2023-08-21T07:21:12;8.68;;;2.40;;
17844;SDS011;9047;53.486;10.218;2023-08-21T07:23:39;7.18;;;2.15;;
17844;SDS011;9047;53.486;10.218;2023-08-21T07:26:06;7.88;;;2.17;;
17844;SDS011;9047;53.486;10.218;2023-08-21T07:28:33;11.52;;;3.03;;
17844;SDS011;9047;53.486;10.218;2023-08-21T07:31:04;8.63;;;2.53;;
17844;SDS011;9047;53.486;10.218;2023-08-21T07:33:32;10.10;;;2.38;;
17844;SDS011;9047;53.486;10.218;2023-08-21T07:36:02;7.25;;;2.08;;
17844;SDS011;9047;53.486;10.218;2023-08-21T07:38:31;9.52;;;2.05;;
17844;SDS011;9047;53.486;10.218;2023-08-21T07:41:02;6.60;;;1.95;;
17844;SDS011;9047;53.486;10.218;2023-08-21T07:43:30;8.70;;;1.95;;
17844;SDS011;9047;53.486;10.218;2023-08-21T07:45:57;5.65;;;1.48;;
17844;SDS011;9047;53.486;10.218;2023-08-21T07:48:24;5.80;;;1.80;;
17844;SDS011;9047;53.486;10.218;2023-08-21T07:50:51;7.10;;;1.88;;
17844;SDS011;9047;53.486;10.218;2023-08-21T07:53:18;7.43;;;2.10;;
17844;SDS011;9047;53.486;10.218;2023-08-21T07:55:49;5.88;;;1.90;;
17844;SDS011;9047;53.486;10.218;2023-08-21T07:58:16;4.82;;;1.50;;
17844;SDS011;9047;53.486;10.218;2023-08-21T08:00:45;5.50;;;1.70;;
17844;SDS011;9047;53.486;10.218;2023-08-21T08:03:44;8.85;;;2.03;;
17844;SDS011;9047;53.486;10.218;2023-08-21T08:06:10;6.70;;;1.50;;
17844;SDS011;9047;53.486;10.218;2023-08-21T08:08:40;5.15;;;1.73;;
17844;SDS011;9047;53.486;10.218;2023-08-21T08:11:09;7.13;;;1.80;;
17844;SDS011;9047;53.486;10.218;2023-08-21T08:13:36;6.80;;;1.70;;
17844;SDS011;9047;53.486;10.218;2023-08-21T08:16:03;4.72;;;1.52;;
17844;SDS011;9047;53.486;10.218;2023-08-21T08:18:30;6.07;;;1.70;;
17844;SDS011;9047;53.486;10.218;2023-08-21T08:20:57;6.50;;;1.85;;
17844;SDS011;9047;53.486;10.218;2023-08-21T08:23:24;4.57;;;1.98;;
17844;SDS011;9047;53.486;10.218;2023-08-21T08:25:51;6.30;;;1.33;;
17844;SDS011;9047;53.486;10.218;2023-08-21T08:28:19;5.82;;;1.40;;
17844;SDS011;9047;53.486;10.218;2023-08-21T08:30:46;5.65;;;1.52;;
17844;SDS011;9047;53.486;10.218;2023-08-21T08:33:13;5.93;;;1.73;;
17844;SDS011;9047;53.486;10.218;2023-08-21T08:35:42;5.40;;;1.42;;
17844;SDS011;9047;53.486;10.218;2023-08-21T08:38:09;4.45;;;1.60;;
17844;SDS011;9047;53.486;10.218;2023-08-21T08:40:37;5.53;;;1.42;;
17844;SDS011;9047;53.486;10.218;2023-08-21T08:43:20;5.20;;;1.30;;
17844;SDS011;9047;53.486;10.218;2023-08-21T08:45:48;5.75;;;1.30;;
17844;SDS011;9047;53.486;10.218;2023-08-21T08:48:16;6.05;;;1.60;;
17844;SDS011;9047;53.486;10.218;2023-08-21T08:50:45;3.15;;;1.27;;
17844;SDS011;9047;53.486;10.218;2023-08-21T08:53:16;4.60;;;1.60;;
17844;SDS011;9047;53.486;10.218;2023-08-21T08:55:44;5.75;;;1.40;;
17844;SDS011;9047;53.486;10.218;2023-08-21T08:58:11;5.25;;;1.50;;
17844;SDS011;9047;53.486;10.218;2023-08-21T09:00:40;7.68;;;1.60;;
17844;SDS011;9047;53.486;10.218;2023-08-21T09:03:07;4.53;;;1.42;;
17844;SDS011;9047;53.486;10.218;2023-08-21T09:05:35;5.10;;;1.45;;
17844;SDS011;9047;53.486;10.218;2023-08-21T09:08:03;5.43;;;1.60;;
17844;SDS011;9047;53.486;10.218;2023-08-21T09:10:35;4.78;;;1.60;;
17844;SDS011;9047;53.486;10.218;2023-08-21T09:13:08;8.32;;;2.30;;
17844;SDS011;9047;53.486;10.218;2023-08-21T09:15:35;6.75;;;1.70;;
17844;SDS011;9047;53.486;10.218;2023-08-21T09:18:04;2.60;;;1.38;;
17844;SDS011;9047;53.486;10.218;2023-08-21T09:20:34;5.55;;;1.30;;
17844;SDS011;9047;53.486;10.218;2023-08-21T09:23:02;6.15;;;1.40;;
17844;SDS011;9047;53.486;10.218;2023-08-21T09:25:33;6.88;;;1.83;;
17844;SDS011;9047;53.486;10.218;2023-08-21T09:28:03;5.20;;;1.25;;
17844;SDS011;9047;53.486;10.218;2023-08-21T09:30:36;4.93;;;1.27;;
17844;SDS011;9047;53.486;10.218;2023-08-21T09:33:11;4.85;;;1.33;;
17844;SDS011;9047;53.486;10.218;2023-08-21T09:35:38;6.40;;;1.40;;
17844;SDS011;9047;53.486;10.218;2023-08-21T09:38:07;4.15;;;1.10;;
17844;SDS011;9047;53.486;10.218;2023-08-21T09:40:34;3.15;;;1.10;;
17844;SDS011;9047;53.486;10.218;2023-08-21T09:43:04;2.47;;;1.10;;
17844;SDS011;9047;53.486;10.218;2023-08-21T09:45:31;5.90;;;1.20;;
17844;SDS011;9047;53.486;10.218;2023-08-21T09:48:00;6.15;;;1.25;;
17844;SDS011;9047;53.486;10.218;2023-08-21T09:50:30;4.47;;;1.20;;
17844;SDS011;9047;53.486;10.218;2023-08-21T09:52:57;4.25;;;1.25;;
17844;SDS011;9047;53.486;10.218;2023-08-21T09:55:24;5.80;;;1.50;;
17844;SDS011;9047;53.486;10.218;2023-08-21T09:57:54;5.50;;;1.65;;
17844;SDS011;9047;53.486;10.218;2023-08-21T10:00:26;4.50;;;1.20;;
17844;SDS011;9047;53.486;10.218;2023-08-21T10:02:55;3.00;;;1.05;;
17844;SDS011;9047;53.486;10.218;2023-08-21T10:05:30;5.03;;;1.30;;
17844;SDS011;9047;53.486;10.218;2023-08-21T10:08:00;4.30;;;1.20;;
17844;SDS011;9047;53.486;10.218;2023-08-21T10:10:29;3.83;;;1.20;;
17844;SDS011;9047;53.486;10.218;2023-08-21T10:12:57;3.53;;;1.10;;
17844;SDS011;9047;53.486;10.218;2023-08-21T10:15:25;3.65;;;1.35;;
17844;SDS011;9047;53.486;10.218;2023-08-21T10:17:52;3.28;;;1.20;;
17844;SDS011;9047;53.486;10.218;2023-08-21T10:20:20;3.28;;;1.20;;
17844;SDS011;9047;53.486;10.218;2023-08-21T10:22:51;5.07;;;1.30;;
17844;SDS011;9047;53.486;10.218;2023-08-21T10:25:20;4.60;;;1.33;;
17844;SDS011;9047;53.486;10.218;2023-08-21T10:27:49;7.10;;;1.55;;
17844;SDS011;9047;53.486;10.218;2023-08-21T10:30:20;4.63;;;1.30;;
17844;SDS011;9047;53.486;10.218;2023-08-21T10:32:48;6.00;;;1.48;;
17844;SDS011;9047;53.486;10.218;2023-08-21T10:35:18;4.78;;;1.45;;
17844;SDS011;9047;53.486;10.218;2023-08-21T10:40:37;3.83;;;1.23;;
17844;SDS011;9047;53.486;10.218;2023-08-21T10:43:14;3.78;;;1.30;;
17844;SDS011;9047;53.486;10.218;2023-08-21T10:46:05;3.75;;;1.23;;
17844;SDS011;9047;53.486;10.218;2023-08-21T10:48:32;4.63;;;1.40;;
17844;SDS011;9047;53.486;10.218;2023-08-21T10:51:00;4.20;;;1.20;;
17844;SDS011;9047;53.486;10.218;2023-08-21T10:53:31;2.70;;;1.17;;
17844;SDS011;9047;53.486;10.218;2023-08-21T10:56:00;4.38;;;1.13;;
17844;SDS011;9047;53.486;10.218;2023-08-21T10:58:28;2.65;;;1.02;;
17844;SDS011;9047;53.486;10.218;2023-08-21T11:01:00;3.78;;;1.40;;
17844;SDS011;9047;53.486;10.218;2023-08-21T11:03:28;3.70;;;1.30;;
17844;SDS011;9047;53.486;10.218;2023-08-21T11:06:04;5.25;;;1.30;;
17844;SDS011;9047;53.486;10.218;2023-08-21T11:08:34;3.15;;;1.40;;
17844;SDS011;9047;53.486;10.218;2023-08-21T11:11:02;4.65;;;1.30;;
17844;SDS011;9047;53.486;10.218;2023-08-21T11:13:31;5.05;;;1.70;;
17844;SDS011;9047;53.486;10.218;2023-08-21T11:15:58;5.03;;;1.40;;
17844;SDS011;9047;53.486;10.218;2023-08-21T11:18:29;3.97;;;1.10;;
17844;SDS011;9047;53.486;10.218;2023-08-21T11:21:03;4.75;;;1.50;;
17844;SDS011;9047;53.486;10.218;2023-08-21T11:23:31;4.03;;;1.10;;
17844;SDS011;9047;53.486;10.218;2023-08-21T11:26:00;3.95;;;1.50;;
17844;SDS011;9047;53.486;10.218;2023-08-21T11:28:28;4.93;;;1.35;;
17844;SDS011;9047;53.486;10.218;2023-08-21T11:30:56;2.55;;;1.13;;
17844;SDS011;9047;53.486;10.218;2023-08-21T11:33:23;3.97;;;1.27;;
17844;SDS011;9047;53.486;10.218;2023-08-21T11:35:51;2.33;;;1.10;;
17844;SDS011;9047;53.486;10.218;2023-08-21T11:38:20;5.78;;;1.40;;
17844;SDS011;9047;53.486;10.218;2023-08-21T11:40:52;3.10;;;1.10;;
17844;SDS011;9047;53.486;10.218;2023-08-21T11:43:33;3.85;;;1.00;;
17844;SDS011;9047;53.486;10.218;2023-08-21T11:46:02;4.78;;;1.25;;
17844;SDS011;9047;53.486;10.218;2023-08-21T11:48:29;3.80;;;1.02;;
17844;SDS011;9047;53.486;10.218;2023-08-21T11:50:56;3.20;;;1.40;;
17844;SDS011;9047;53.486;10.218;2023-08-21T11:53:30;3.72;;;1.33;;
17844;SDS011;9047;53.486;10.218;2023-08-21T11:56:08;4.10;;;1.50;;
17844;SDS011;9047;53.486;10.218;2023-08-21T11:58:37;3.63;;;1.20;;
17844;SDS011;9047;53.486;10.218;2023-08-21T12:01:04;2.85;;;1.23;;
17844;SDS011;9047;53.486;10.218;2023-08-21T12:03:35;4.88;;;2.90;;
17844;SDS011;9047;53.486;10.218;2023-08-21T12:06:06;5.07;;;1.42;;
17844;SDS011;9047;53.486;10.218;2023-08-21T12:08:34;3.53;;;1.10;;
17844;SDS011;9047;53.486;10.218;2023-08-21T12:11:01;3.67;;;1.30;;
17844;SDS011;9047;53.486;10.218;2023-08-21T12:13:29;4.53;;;1.60;;
17844;SDS011;9047;53.486;10.218;2023-08-21T12:15:56;3.38;;;1.30;;
17844;SDS011;9047;53.486;10.218;2023-08-21T12:18:24;5.22;;;1.40;;
17844;SDS011;9047;53.486;10.218;2023-08-21T12:20:51;3.65;;;1.73;;
17844;SDS011;9047;53.486;10.218;2023-08-21T12:23:18;3.15;;;1.60;;
17844;SDS011;9047;53.486;10.218;2023-08-21T12:25:45;2.67;;;1.30;;
17844;SDS011;9047;53.486;10.218;2023-08-21T12:28:13;3.10;;;1.15;;
17844;SDS011;9047;53.486;10.218;2023-08-21T12:30:41;3.38;;;1.20;;
17844;SDS011;9047;53.486;10.218;2023-08-21T12:33:09;4.22;;;1.15;;
17844;SDS011;9047;53.486;10.218;2023-08-21T12:35:39;5.15;;;1.33;;
17844;SDS011;9047;53.486;10.218;2023-08-21T12:38:10;4.70;;;1.40;;
17844;SDS011;9047;53.486;10.218;2023-08-21T12:40:37;4.38;;;1.50;;
17844;SDS011;9047;53.486;10.218;2023-08-21T12:43:04;6.22;;;1.38;;
17844;SDS011;9047;53.486;10.218;2023-08-21T12:45:31;3.58;;;1.23;;
17844;SDS011;9047;53.486;10.218;2023-08-21T12:48:03;3.60;;;1.23;;
17844;SDS011;9047;53.486;10.218;2023-08-21T12:50:31;3.03;;;1.20;;
17844;SDS011;9047;53.486;10.218;2023-08-21T12:52:58;4.47;;;1.20;;
17844;SDS011;9047;53.486;10.218;2023-08-21T12:55:26;3.67;;;1.20;;
17844;SDS011;9047;53.486;10.218;2023-08-21T12:57:54;4.68;;;1.30;;
17844;SDS011;9047;53.486;10.218;2023-08-21T13:00:21;3.80;;;1.30;;
17844;SDS011;9047;53.486;10.218;2023-08-21T13:02:49;3.28;;;1.40;;
17844;SDS011;9047;53.486;10.218;2023-08-21T13:05:18;3.13;;;1.30;;
17844;SDS011;9047;53.486;10.218;2023-08-21T13:07:47;2.92;;;1.20;;
17844;SDS011;9047;53.486;10.218;2023-08-21T13:10:14;4.55;;;1.50;;
17844;SDS011;9047;53.486;10.218;2023-08-21T13:12:40;4.20;;;1.92;;
17844;SDS011;9047;53.486;10.218;2023-08-21T13:15:09;5.15;;;1.70;;
17844;SDS011;9047;53.486;10.218;2023-08-21T13:17:36;5.10;;;1.65;;
17844;SDS011;9047;53.486;10.218;2023-08-21T13:20:05;3.40;;;1.40;;
17844;SDS011;9047;53.486;10.218;2023-08-21T13:22:45;5.90;;;1.90;;
17844;SDS011;9047;53.486;10.218;2023-08-21T13:25:16;4.40;;;1.73;;
17844;SDS011;9047;53.486;10.218;2023-08-21T13:27:45;4.90;;;1.70;;
17844;SDS011;9047;53.486;10.218;2023-08-21T13:30:15;5.03;;;2.90;;
17844;SDS011;9047;53.486;10.218;2023-08-21T13:32:42;7.00;;;2.78;;
17844;SDS011;9047;53.486;10.218;2023-08-21T13:35:10;4.00;;;1.67;;
17844;SDS011;9047;53.486;10.218;2023-08-21T13:37:37;2.70;;;1.52;;
17844;SDS011;9047;53.486;10.218;2023-08-21T13:40:07;2.28;;;1.30;;
17844;SDS011;9047;53.486;10.218;2023-08-21T13:42:37;3.40;;;1.60;;
17844;SDS011;9047;53.486;10.218;2023-08-21T13:45:07;2.50;;;1.20;;
17844;SDS011;9047;53.486;10.218;2023-08-21T13:47:37;4.28;;;1.67;;
17844;SDS011;9047;53.486;10.218;2023-08-21T13:50:13;3.88;;;1.80;;
17844;SDS011;9047;53.486;10.218;2023-08-21T13:53:13;11.27;;;2.60;;
17844;SDS011;9047;53.486;10.218;2023-08-21T13:55:42;5.18;;;1.30;;
17844;SDS011;9047;53.486;10.218;2023-08-21T13:58:09;4.05;;;1.52;;
17844;SDS011;9047;53.486;10.218;2023-08-21T14:00:37;2.92;;;1.38;;
17844;SDS011;9047;53.486;10.218;2023-08-21T14:03:06;3.67;;;1.33;;
17844;SDS011;9047;53.486;10.218;2023-08-21T14:05:33;2.55;;;1.42;;
17844;SDS011;9047;53.486;10.218;2023-08-21T14:08:00;3.10;;;1.50;;
17844;SDS011;9047;53.486;10.218;2023-08-21T14:10:27;3.10;;;1.52;;
17844;SDS011;9047;53.486;10.218;2023-08-21T14:12:57;3.65;;;1.50;;
17844;SDS011;9047;53.486;10.218;2023-08-21T14:15:23;4.03;;;1.50;;
17844;SDS011;9047;53.486;10.218;2023-08-21T14:17:50;3.30;;;1.27;;
17844;SDS011;9047;53.486;10.218;2023-08-21T14:20:17;2.25;;;1.45;;
17844;SDS011;9047;53.486;10.218;2023-08-21T14:22:44;4.18;;;1.10;;
17844;SDS011;9047;53.486;10.218;2023-08-21T14:25:11;4.38;;;1.00;;
17844;SDS011;9047;53.486;10.218;2023-08-21T14:27:38;4.18;;;1.20;;
17844;SDS011;9047;53.486;10.218;2023-08-21T14:30:08;2.10;;;1.10;;
17844;SDS011;9047;53.486;10.218;2023-08-21T14:32:36;3.30;;;1.50;;
17844;SDS011;9047;53.486;10.218;2023-08-21T14:35:04;4.15;;;1.25;;
17844;SDS011;9047;53.486;10.218;2023-08-21T14:37:33;2.28;;;1.30;;
17844;SDS011;9047;53.486;10.218;2023-08-21T14:40:00;2.55;;;1.00;;
17844;SDS011;9047;53.486;10.218;2023-08-21T14:42:32;3.13;;;1.10;;
17844;SDS011;9047;53.486;10.218;2023-08-21T14:45:01;2.05;;;1.17;;
17844;SDS011;9047;53.486;10.218;2023-08-21T14:47:30;3.50;;;1.13;;
17844;SDS011;9047;53.486;10.218;2023-08-21T14:49:57;3.35;;;1.20;;
17844;SDS011;9047;53.486;10.218;2023-08-21T14:52:25;3.38;;;1.15;;
17844;SDS011;9047;53.486;10.218;2023-08-21T14:54:54;3.25;;;1.35;;
17844;SDS011;9047;53.486;10.218;2023-08-21T14:57:24;2.25;;;1.20;;
17844;SDS011;9047;53.486;10.218;2023-08-21T14:59:52;3.17;;;1.40;;